ポンペイ島 の空港の天気 - METARとTAF

ポンペイ国際空港 ( PTPN / PNI ) - ミクロネシア連邦 ポンペイ島
飛行場実況気象(Metar)
観測時間07/22 14:56 +11 (07/22 03:56 UTC)
風向・風速東北東 3m/s
視程10km以上
天気現象弱い雨
全天の8割程度の雲 雲底高度 520m
全天を覆う雲 雲底高度 3960m
気温27℃
湿度89%
気圧1010hPa
METARPTPN 220356Z 06005KT 15SM -RA BKN017TCU OVC130 27/25 A2982 RMK TCU ALQDS LAST
過去の天気等 Google飛行場航空写真 Wunderground天気予報

過去48時間のMETAR

飛行場予報(TAF)
発表時間: 7/22 16:47 +11 (7/22 05:47 UTC)
予報対象時間: 22日17時 +11 ~ 23日17時 +11
風向・風速東北東 4m/s
視程10km以上
天気現象弱い雨
全天の4割程度の雲 雲底高度 430m
全天の8割程度の雲 雲底高度 1220m
全天を覆う雲 雲底高度 3050m
22日17時 +11 ~ 22日21時 +11 に一時的に
視程8050m
天気現象しゅう雨
全天の8割程度の雲 雲底高度 490m
全天を覆う雲 雲底高度 1220m
22日21時 +11 から
風向・風速不定 3m/s
視程10km以上
天気現象周辺でしゅう雨
全天の4割程度の雲 雲底高度 490m
全天の4割程度の雲 雲底高度 1220m
全天を覆う雲 雲底高度 3660m
PTPN 220547Z 2206/2306 06008KT P6SM -RA SCT014 BKN040 OVC100
TEMPO 2206/2210 5SM SHRA BKN016 OVC040
FM221000 VRB06KT P6SM VCSH SCT016 SCT040 OVC120